Terminal Aerodrome Forecast
Issued by NWS Des Moines, IA

Home | Current Version | Previous Version | Text Only | Print | Product List | Glossary On
Versions: 1 2 3 4 5 6 7 8 9 10 11 12 13 14 15 16 17 18 19 20 21 22 23 24 25 26 27 28
000
FTUS43 KDMX 010334 AAA
TAFALO
TAF AMD
KALO 010334Z 0104/0124 07022G29KT 6SM -RA SCT011 OVC035
     FM010430 09009KT 4SM BR VCSH OVC006
     FM011200 17005KT 2SM -SHRA OVC004
     FM011500 25012KT 5SM BR OVC008
     FM011900 29015G25KT P6SM OVC014=

USA.gov is the U.S. government's official web portal to all federal, state and local government web resources and services.